createdAt,value
2018-12-20T00:01:13.906Z,21.23
2018-12-20T00:03:42.873Z,19.10
2018-12-20T00:06:11.907Z,21.55
2018-12-20T00:08:40.804Z,18.37
2018-12-20T00:11:09.711Z,19.10
2018-12-20T00:13:38.708Z,17.35
2018-12-20T00:16:07.750Z,18.17
2018-12-20T00:18:37.439Z,17.40
2018-12-20T00:21:06.504Z,18.27
2018-12-20T00:23:35.469Z,19.17
2018-12-20T00:26:04.478Z,18.52
2018-12-20T00:28:33.405Z,17.90
2018-12-20T00:31:02.356Z,16.27
2018-12-20T00:33:31.476Z,18.30
2018-12-20T00:36:00.587Z,18.90
2018-12-20T00:38:29.505Z,18.30
2018-12-20T00:40:59.429Z,16.30
2018-12-20T00:43:28.445Z,19.75
2018-12-20T00:45:57.935Z,17.45
2018-12-20T00:48:26.925Z,19.30
2018-12-20T00:50:55.929Z,16.85
2018-12-20T00:53:24.850Z,16.12
2018-12-20T00:55:53.830Z,16.50
2018-12-20T00:58:23.003Z,18.60
2018-12-20T01:00:52.095Z,19.30
2018-12-20T01:03:20.981Z,19.20
2018-12-20T01:05:50.108Z,19.80
2018-12-20T01:08:19.071Z,16.27
2018-12-20T01:10:48.334Z,15.45
2018-12-20T01:13:17.365Z,15.68
2018-12-20T01:15:46.294Z,17.82
2018-12-20T01:18:15.412Z,15.32
2018-12-20T01:20:44.569Z,19.10
2018-12-20T01:23:13.635Z,16.50
2018-12-20T01:25:42.697Z,14.45
2018-12-20T01:28:11.718Z,14.87
2018-12-20T01:30:40.727Z,15.45
2018-12-20T01:33:09.665Z,14.95
2018-12-20T01:35:39.800Z,16.10
2018-12-20T01:38:08.784Z,15.35
2018-12-20T01:40:37.661Z,15.38
2018-12-20T01:43:06.720Z,13.75
2018-12-20T01:45:35.872Z,13.13
2018-12-20T01:48:04.873Z,12.90
2018-12-20T01:50:34.035Z,13.32
2018-12-20T01:53:03.304Z,15.00
2018-12-20T01:55:32.393Z,13.30
2018-12-20T01:58:01.430Z,13.72
2018-12-20T02:00:30.321Z,14.40
2018-12-20T02:02:59.194Z,15.60
2018-12-20T02:05:28.218Z,12.95
2018-12-20T02:07:57.207Z,15.48
2018-12-20T02:10:26.167Z,14.20
2018-12-20T02:12:55.267Z,13.00
2018-12-20T02:15:24.207Z,15.45
2018-12-20T02:17:53.241Z,14.10
2018-12-20T02:20:22.537Z,13.20
2018-12-20T02:22:51.780Z,13.05
2018-12-20T02:25:20.782Z,14.15
2018-12-20T02:27:49.792Z,12.60
2018-12-20T02:30:18.727Z,12.33
2018-12-20T02:32:47.860Z,10.95
2018-12-20T02:35:17.091Z,14.65
2018-12-20T02:37:46.175Z,10.40
2018-12-20T02:40:15.253Z,10.38
2018-12-20T02:42:44.463Z,10.80
2018-12-20T02:45:13.585Z,9.58
2018-12-20T02:47:42.889Z,9.00
2018-12-20T02:50:11.936Z,9.25
2018-12-20T02:52:41.133Z,9.20
2018-12-20T02:55:10.087Z,10.43
2018-12-20T02:57:39.024Z,8.28
2018-12-20T03:00:08.340Z,9.48
2018-12-20T03:02:37.322Z,7.50
2018-12-20T03:05:06.719Z,11.60
2018-12-20T03:07:35.706Z,10.80
2018-12-20T03:10:05.142Z,10.93
2018-12-20T03:12:34.191Z,8.05
2018-12-20T03:15:03.341Z,7.95
2018-12-20T03:17:32.374Z,9.75
2018-12-20T03:20:01.574Z,9.55
2018-12-20T03:22:30.591Z,8.25
2018-12-20T03:24:59.611Z,8.00
2018-12-20T03:27:28.689Z,8.25
2018-12-20T03:29:57.678Z,7.50
2018-12-20T03:32:26.593Z,7.55
2018-12-20T03:34:55.566Z,6.87
2018-12-20T03:37:24.805Z,7.35
2018-12-20T03:39:53.819Z,6.80
2018-12-20T03:42:22.917Z,7.33
2018-12-20T03:44:51.985Z,7.65
2018-12-20T03:47:20.942Z,8.18
2018-12-20T03:49:50.078Z,7.97
2018-12-20T03:52:19.254Z,6.90
2018-12-20T03:54:48.324Z,5.35
2018-12-20T03:57:17.448Z,7.05
2018-12-20T03:59:46.506Z,5.37
2018-12-20T04:02:15.590Z,6.65
2018-12-20T04:04:44.684Z,5.78
2018-12-20T04:07:13.663Z,5.65
2018-12-20T04:09:42.679Z,6.12
2018-12-20T04:12:11.743Z,8.90
2018-12-20T04:14:40.820Z,8.65
2018-12-20T04:17:09.906Z,7.60
2018-12-20T04:19:38.949Z,5.20
2018-12-20T04:22:07.882Z,6.87
2018-12-20T04:24:36.850Z,6.78
2018-12-20T04:27:05.825Z,7.55
2018-12-20T04:29:34.876Z,6.45
2018-12-20T04:32:04.158Z,6.47
2018-12-20T04:34:33.278Z,7.05
2018-12-20T04:37:02.282Z,6.10
2018-12-20T04:39:31.407Z,6.95
2018-12-20T04:42:00.687Z,7.40
2018-12-20T04:44:29.693Z,8.13
2018-12-20T04:46:59.596Z,8.25
2018-12-20T04:49:28.935Z,8.05
2018-12-20T04:51:57.870Z,7.67
2018-12-20T04:54:26.754Z,8.43
2018-12-20T04:56:55.662Z,6.67
2018-12-20T04:59:24.501Z,7.72
2018-12-20T05:01:53.378Z,7.72
2018-12-20T05:04:22.312Z,7.00
2018-12-20T05:06:52.081Z,8.15
2018-12-20T05:09:21.361Z,7.15
2018-12-20T05:11:50.615Z,9.15
2018-12-20T05:14:20.044Z,6.78
2018-12-20T05:16:49.061Z,7.05
2018-12-20T05:19:18.210Z,7.75
2018-12-20T05:21:47.174Z,8.25
2018-12-20T05:24:16.073Z,9.78
2018-12-20T05:26:45.164Z,9.38
2018-12-20T05:29:14.158Z,11.50
2018-12-20T05:31:43.107Z,9.20
2018-12-20T05:34:12.141Z,9.25
2018-12-20T05:36:41.278Z,9.30
2018-12-20T05:39:10.286Z,8.88
2018-12-20T05:41:39.367Z,11.40
2018-12-20T05:44:08.328Z,8.75
2018-12-20T05:46:37.332Z,10.30
2018-12-20T05:49:06.279Z,11.10
2018-12-20T05:51:35.192Z,11.10
2018-12-20T05:54:04.389Z,9.48
2018-12-20T05:56:33.436Z,10.70
2018-12-20T05:59:02.367Z,10.85
2018-12-20T06:01:31.289Z,11.12
2018-12-20T06:04:00.297Z,10.68
2018-12-20T06:06:29.188Z,9.48
2018-12-20T06:08:58.141Z,10.00
2018-12-20T06:11:27.304Z,9.80
2018-12-20T06:13:56.278Z,9.95
2018-12-20T06:16:25.184Z,11.80
2018-12-20T06:18:54.148Z,12.43
2018-12-20T06:21:23.359Z,11.88
2018-12-20T06:23:52.333Z,11.63
2018-12-20T06:26:21.259Z,10.45
2018-12-20T06:28:50.128Z,10.88
2018-12-20T06:31:19.017Z,10.40
2018-12-20T06:33:47.941Z,9.60
2018-12-20T06:36:16.828Z,12.00
2018-12-20T06:38:45.807Z,10.43
2018-12-20T06:41:14.781Z,11.30
2018-12-20T06:43:43.743Z,10.35
2018-12-20T06:46:20.906Z,14.18
2018-12-20T06:48:43.679Z,12.90
2018-12-20T06:51:12.656Z,13.53
2018-12-20T06:53:41.583Z,11.25
2018-12-20T06:56:10.777Z,12.78
2018-12-20T06:58:39.654Z,12.58
2018-12-20T07:01:08.595Z,13.03
2018-12-20T07:03:37.667Z,14.45
2018-12-20T07:06:06.601Z,16.65
2018-12-20T07:08:35.500Z,11.75
2018-12-20T07:11:04.517Z,13.50
2018-12-20T07:13:33.437Z,12.58
2018-12-20T07:16:02.394Z,12.03
2018-12-20T07:18:31.347Z,12.70
2018-12-20T07:21:00.340Z,14.10
2018-12-20T07:23:29.222Z,13.95
2018-12-20T07:25:58.237Z,13.78
2018-12-20T07:28:27.453Z,12.70
2018-12-20T07:30:56.320Z,10.80
2018-12-20T07:33:25.323Z,13.03
2018-12-20T07:35:54.197Z,12.98
2018-12-20T07:38:23.134Z,12.95
2018-12-20T07:40:52.163Z,13.78
2018-12-20T07:43:21.081Z,11.73
2018-12-20T07:45:50.084Z,12.88
2018-12-20T07:48:19.033Z,11.22
2018-12-20T07:50:47.998Z,13.45
2018-12-20T07:53:16.952Z,12.53
2018-12-20T07:55:45.938Z,11.60
2018-12-20T07:58:14.816Z,12.03
2018-12-20T08:00:43.734Z,12.80
2018-12-20T08:03:12.685Z,12.95
2018-12-20T08:05:41.671Z,12.45
2018-12-20T08:08:10.720Z,13.60
2018-12-20T08:10:39.691Z,14.35
2018-12-20T08:13:08.653Z,12.80
2018-12-20T08:15:37.594Z,15.28
2018-12-20T08:18:06.538Z,13.25
2018-12-20T08:20:35.505Z,12.28
2018-12-20T08:23:04.381Z,15.78
2018-12-20T08:25:33.324Z,14.20
2018-12-20T08:28:02.348Z,18.23
2018-12-20T08:30:31.262Z,19.05
2018-12-20T08:33:00.290Z,16.12
2018-12-20T08:35:29.269Z,16.40
2018-12-20T08:37:58.180Z,15.35
2018-12-20T08:40:27.135Z,15.03
2018-12-20T08:42:56.021Z,17.15
2018-12-20T08:45:25.118Z,14.85
2018-12-20T08:47:54.101Z,14.80
2018-12-20T08:50:23.656Z,15.38
2018-12-20T08:52:52.695Z,15.13
2018-12-20T08:55:21.719Z,16.97
2018-12-20T08:57:50.720Z,16.48
2018-12-20T09:00:19.654Z,16.17
2018-12-20T09:02:48.581Z,15.48
2018-12-20T09:05:17.542Z,16.62
2018-12-20T09:07:46.428Z,15.78
2018-12-20T09:10:15.427Z,16.10
2018-12-20T09:12:44.748Z,16.30
2018-12-20T09:15:13.854Z,18.52
2018-12-20T09:17:43.265Z,18.05
2018-12-20T09:20:13.574Z,17.30
2018-12-20T09:22:42.918Z,15.95
2018-12-20T09:25:11.948Z,15.72
2018-12-20T09:27:40.843Z,18.87
2018-12-20T09:30:10.060Z,16.80
2018-12-20T09:32:39.052Z,20.15
2018-12-20T09:35:08.064Z,18.32
2018-12-20T09:37:37.046Z,16.17
2018-12-20T09:40:06.139Z,15.58
2018-12-20T09:42:35.064Z,19.57
2018-12-20T09:45:05.347Z,18.32
2018-12-20T09:47:39.743Z,17.15
2018-12-20T09:50:08.798Z,17.80
2018-12-20T09:52:37.907Z,19.57
2018-12-20T09:55:06.837Z,18.55
2018-12-20T09:57:35.793Z,19.45
2018-12-20T10:00:05.690Z,17.37
2018-12-20T10:02:34.737Z,19.00
2018-12-20T10:05:03.839Z,19.30
2018-12-20T10:07:32.766Z,19.20
2018-12-20T10:10:01.637Z,17.27
2018-12-20T10:12:30.631Z,18.42
2018-12-20T10:14:59.551Z,21.05
2018-12-20T10:17:28.549Z,20.65
2018-12-20T10:19:57.592Z,19.23
2018-12-20T10:22:26.475Z,17.12
2018-12-20T10:24:55.384Z,18.40
2018-12-20T10:27:31.402Z,18.48
2018-12-20T10:29:55.297Z,18.62
2018-12-20T10:32:24.201Z,17.70
2018-12-20T10:34:53.267Z,19.23
2018-12-20T10:37:22.166Z,16.67
2018-12-20T10:39:51.104Z,20.02
2018-12-20T10:42:20.097Z,19.45
2018-12-20T10:44:49.161Z,18.23
2018-12-20T10:47:29.149Z,19.25
2018-12-20T10:49:57.857Z,19.07
2018-12-20T10:52:26.824Z,18.30
2018-12-20T10:54:55.739Z,18.00
2018-12-20T10:57:24.666Z,18.67
2018-12-20T10:59:54.042Z,19.25
2018-12-20T11:02:28.179Z,20.43
2018-12-20T11:05:02.216Z,16.87
2018-12-20T11:08:35.194Z,18.67
2018-12-20T11:11:09.395Z,18.20
2018-12-20T11:13:38.463Z,19.05
2018-12-20T11:16:07.469Z,15.80
2018-12-20T11:18:36.398Z,18.82
2018-12-20T11:21:05.306Z,17.55
2018-12-20T11:23:34.229Z,18.17
2018-12-20T11:26:03.213Z,17.15
2018-12-20T11:28:32.136Z,17.40
2018-12-20T11:31:01.057Z,16.12
2018-12-20T11:33:29.966Z,17.30
2018-12-20T11:35:58.872Z,17.92
2018-12-20T11:38:27.817Z,17.95
2018-12-20T11:40:56.847Z,18.10
2018-12-20T11:43:25.733Z,19.90
2018-12-20T11:45:55.183Z,18.62
2018-12-20T11:48:24.244Z,16.95
2018-12-20T11:50:53.140Z,17.37
2018-12-20T11:53:22.059Z,17.82
2018-12-20T11:55:51.105Z,18.17
2018-12-20T11:58:19.989Z,18.27
2018-12-20T12:00:48.947Z,19.35
2018-12-20T12:03:18.017Z,19.82
2018-12-20T12:05:46.900Z,19.77
2018-12-20T12:08:15.913Z,19.75
2018-12-20T12:10:44.945Z,24.35
2018-12-20T12:13:13.885Z,16.87
2018-12-20T12:15:42.840Z,21.10
2018-12-20T12:18:11.836Z,19.40
2018-12-20T12:20:40.755Z,17.65
2018-12-20T12:23:09.800Z,19.27
2018-12-20T12:25:38.744Z,19.70
2018-12-20T12:28:07.667Z,20.27
2018-12-20T12:30:37.435Z,19.98
2018-12-20T12:33:06.433Z,23.32
2018-12-20T12:35:35.331Z,21.20
2018-12-20T12:38:04.312Z,23.25
2018-12-20T12:40:33.313Z,21.42
2018-12-20T12:43:02.259Z,24.15
2018-12-20T12:45:31.234Z,21.12
2018-12-20T12:48:03.734Z,23.65
2018-12-20T12:50:31.226Z,22.80
2018-12-20T12:53:00.326Z,24.57
2018-12-20T12:55:29.258Z,23.30
2018-12-20T12:58:04.549Z,23.15
2018-12-20T13:00:29.275Z,25.68
2018-12-20T13:02:58.183Z,23.02
2018-12-20T13:05:27.117Z,21.42
2018-12-20T13:07:56.059Z,23.40
2018-12-20T13:10:24.997Z,25.17
2018-12-20T13:12:53.897Z,24.67
2018-12-20T13:15:22.832Z,23.10
2018-12-20T13:17:51.793Z,25.57
2018-12-20T13:20:20.772Z,31.02
2018-12-20T13:22:49.917Z,35.08
2018-12-20T13:25:18.850Z,28.87
2018-12-20T13:27:47.785Z,37.78
2018-12-20T13:30:16.810Z,35.55
2018-12-20T13:32:45.824Z,51.13
2018-12-20T13:35:14.790Z,40.45
2018-12-20T13:37:43.793Z,82.78
2018-12-20T13:40:12.788Z,118.70
2018-12-20T13:42:41.646Z,48.95
2018-12-20T13:45:10.643Z,38.48
2018-12-20T13:47:39.664Z,30.85
2018-12-20T13:50:09.498Z,28.85
2018-12-20T13:52:38.465Z,30.40
2018-12-20T13:55:07.417Z,29.52
2018-12-20T13:57:36.353Z,25.32
2018-12-20T14:00:06.892Z,27.48
2018-12-20T14:02:35.822Z,30.75
2018-12-20T14:05:05.128Z,26.97
2018-12-20T14:07:34.092Z,31.10
2018-12-20T14:10:03.017Z,25.20
2018-12-20T14:12:31.904Z,24.77
2018-12-20T14:15:00.892Z,25.75
2018-12-20T14:17:29.802Z,24.82
2018-12-20T14:19:58.761Z,28.83
2018-12-20T14:22:27.725Z,33.88
2018-12-20T14:24:56.625Z,40.58
2018-12-20T14:27:25.503Z,45.23
2018-12-20T14:29:54.434Z,36.70
2018-12-20T14:32:23.374Z,29.80
2018-12-20T14:34:54.431Z,30.45
2018-12-20T14:37:23.309Z,31.23
2018-12-20T14:39:52.178Z,28.45
2018-12-20T14:42:21.143Z,29.45
2018-12-20T14:44:50.041Z,27.58
2018-12-20T14:47:18.970Z,26.33
2018-12-20T14:49:47.844Z,23.67
2018-12-20T14:52:16.800Z,27.20
2018-12-20T14:54:45.725Z,25.77
2018-12-20T14:57:14.613Z,25.50
2018-12-20T14:59:43.597Z,28.67
2018-12-20T15:02:12.629Z,26.45
2018-12-20T15:04:41.595Z,24.43
2018-12-20T15:07:10.539Z,28.45
2018-12-20T15:09:40.631Z,29.60
2018-12-20T15:12:09.616Z,33.25
2018-12-20T15:14:38.645Z,29.35
2018-12-20T15:17:07.556Z,30.25
2018-12-20T15:19:36.473Z,30.82
2018-12-20T15:22:05.468Z,31.95
2018-12-20T15:24:34.370Z,30.57
2018-12-20T15:27:03.240Z,28.83
2018-12-20T15:29:32.277Z,33.13
2018-12-20T15:32:01.240Z,28.90
2018-12-20T15:34:30.130Z,37.70
2018-12-20T15:36:59.063Z,34.20
2018-12-20T15:39:27.977Z,32.25
2018-12-20T15:41:56.871Z,29.32
2018-12-20T15:44:25.806Z,29.30
2018-12-20T15:46:54.734Z,27.70
2018-12-20T15:49:23.661Z,26.45
2018-12-20T15:51:52.650Z,27.15
2018-12-20T15:54:22.129Z,33.95
2018-12-20T15:56:51.035Z,35.60
2018-12-20T15:59:19.937Z,35.88
2018-12-20T16:01:48.880Z,42.58
2018-12-20T16:04:17.889Z,45.35
2018-12-20T16:06:46.837Z,42.45
2018-12-20T16:09:15.742Z,41.08
2018-12-20T16:11:44.671Z,33.78
2018-12-20T16:14:13.660Z,33.00
2018-12-20T16:16:42.637Z,36.83
2018-12-20T16:19:11.567Z,39.20
2018-12-20T16:21:40.554Z,36.98
2018-12-20T16:24:09.501Z,41.83
2018-12-20T16:26:38.433Z,35.88
2018-12-20T16:29:07.370Z,35.73
2018-12-20T16:31:36.357Z,36.08
2018-12-20T16:34:05.244Z,37.88
2018-12-20T16:36:34.205Z,41.30
2018-12-20T16:39:04.924Z,38.98
2018-12-20T16:41:33.848Z,36.75
2018-12-20T16:44:02.879Z,39.92
2018-12-20T16:46:31.798Z,38.33
2018-12-20T16:49:00.826Z,42.83
2018-12-20T16:51:29.735Z,39.50
2018-12-20T16:53:58.645Z,38.88
2018-12-20T16:56:27.648Z,35.85
2018-12-20T16:58:56.630Z,35.63
2018-12-20T17:01:25.567Z,34.85
2018-12-20T17:03:54.608Z,37.30
2018-12-20T17:06:23.590Z,34.23
2018-12-20T17:08:52.537Z,33.95
2018-12-20T17:11:21.485Z,35.33
2018-12-20T17:13:50.361Z,28.38
2018-12-20T17:16:19.364Z,32.67
2018-12-20T17:18:48.281Z,31.35
2018-12-20T17:21:17.252Z,32.88
2018-12-20T17:23:46.208Z,33.60
2018-12-20T17:26:15.158Z,36.58
2018-12-20T17:28:44.069Z,34.03
2018-12-20T17:31:13.008Z,32.80
2018-12-20T17:33:41.990Z,36.10
2018-12-20T17:36:10.885Z,33.02
2018-12-20T17:38:39.915Z,35.40
2018-12-20T17:41:08.849Z,31.68
2018-12-20T17:43:37.738Z,31.27
2018-12-20T17:46:06.610Z,35.40
2018-12-20T17:48:35.690Z,31.68
2018-12-20T17:51:04.626Z,29.12
2018-12-20T17:53:33.517Z,29.67
2018-12-20T17:56:02.761Z,31.52
2018-12-20T17:58:31.679Z,32.15
2018-12-20T18:01:01.068Z,34.15
2018-12-20T18:03:31.675Z,32.70
2018-12-20T18:06:00.831Z,29.20
2018-12-20T18:08:30.712Z,31.33
2018-12-20T18:10:59.843Z,32.53
2018-12-20T18:13:28.955Z,32.38
2018-12-20T18:15:58.609Z,29.65
2018-12-20T18:18:27.749Z,30.60
2018-12-20T18:20:57.076Z,30.55
2018-12-20T18:23:26.099Z,31.33
2018-12-20T18:25:55.107Z,32.45
2018-12-20T18:28:25.510Z,32.83
2018-12-20T18:30:54.712Z,36.23
2018-12-20T18:33:23.751Z,30.02
2018-12-20T18:35:52.761Z,31.48
2018-12-20T18:38:23.459Z,35.60
2018-12-20T18:40:52.521Z,30.43
2018-12-20T18:43:21.495Z,31.05
2018-12-20T18:45:50.528Z,31.48
2018-12-20T18:48:19.438Z,32.73
2018-12-20T18:50:48.397Z,30.95
2018-12-20T18:53:17.929Z,31.60
2018-12-20T18:55:46.862Z,31.40
2018-12-20T18:58:15.814Z,35.05
2018-12-20T19:00:45.372Z,31.42
2018-12-20T19:03:14.462Z,33.60
2018-12-20T19:05:43.650Z,33.18
2018-12-20T19:08:14.829Z,33.08
2018-12-20T19:10:43.954Z,44.10
2018-12-20T19:13:14.283Z,43.28
2018-12-20T19:15:43.409Z,36.95
2018-12-20T19:18:27.095Z,31.65
2018-12-20T19:20:56.209Z,35.15
2018-12-20T19:23:26.438Z,33.13
2018-12-20T19:25:56.524Z,34.58
2018-12-20T19:28:25.483Z,32.00
2018-12-20T19:30:54.386Z,26.75
2018-12-20T19:33:23.995Z,33.40
2018-12-20T19:35:53.671Z,31.17
2018-12-20T19:38:23.195Z,31.70
2018-12-20T19:40:52.347Z,33.02
2018-12-20T19:43:21.257Z,31.48
2018-12-20T19:45:50.222Z,33.60
2018-12-20T19:48:19.598Z,31.00
2018-12-20T19:50:48.649Z,29.07
2018-12-20T19:53:17.642Z,31.77
2018-12-20T19:55:47.177Z,31.55
2018-12-20T19:58:16.316Z,31.33
2018-12-20T20:00:46.975Z,29.48
2018-12-20T20:03:15.983Z,31.65
2018-12-20T20:05:44.998Z,30.40
2018-12-20T20:08:14.210Z,28.92
2018-12-20T20:10:43.464Z,28.85
2018-12-20T20:13:19.156Z,32.05
2018-12-20T20:15:43.378Z,31.70
2018-12-20T20:18:12.273Z,28.23
2018-12-20T20:20:41.244Z,32.58
2018-12-20T20:23:10.890Z,28.95
2018-12-20T20:25:40.169Z,28.07
2018-12-20T20:28:09.086Z,31.52
2018-12-20T20:30:38.930Z,28.75
2018-12-20T20:33:07.909Z,36.83
2018-12-20T20:35:36.950Z,38.23
2018-12-20T20:38:06.203Z,31.15
2018-12-20T20:40:36.135Z,31.23
2018-12-20T20:43:05.369Z,31.33
2018-12-20T20:45:34.381Z,32.08
2018-12-20T20:48:03.532Z,28.95
2018-12-20T20:50:32.714Z,29.45
2018-12-20T20:53:03.406Z,32.50
2018-12-20T20:55:32.421Z,31.52
2018-12-20T20:58:02.025Z,35.17
2018-12-20T21:00:31.158Z,31.95
2018-12-20T21:03:00.149Z,25.80
2018-12-20T21:05:29.262Z,26.90
2018-12-20T21:07:59.071Z,27.35
2018-12-20T21:10:28.108Z,27.32
2018-12-20T21:12:57.109Z,24.52
2018-12-20T21:15:26.494Z,22.93
2018-12-20T21:17:55.456Z,25.65
2018-12-20T21:20:30.632Z,22.85
2018-12-20T21:22:55.405Z,21.27
2018-12-20T21:25:25.400Z,19.20
2018-12-20T21:27:54.467Z,17.57
2018-12-20T21:30:23.526Z,17.35
2018-12-20T21:32:53.677Z,18.02
2018-12-20T21:35:22.784Z,17.23
2018-12-20T21:37:51.772Z,19.02
2018-12-20T21:40:20.726Z,18.02
2018-12-20T21:42:49.707Z,17.98
2018-12-20T21:45:18.783Z,17.07
2018-12-20T21:47:47.786Z,16.85
2018-12-20T21:50:16.804Z,16.87
2018-12-20T21:52:45.854Z,17.95
2018-12-20T21:55:14.866Z,16.65
2018-12-20T21:57:43.824Z,15.10
2018-12-20T22:00:12.759Z,15.10
2018-12-20T22:02:41.892Z,16.90
2018-12-20T22:05:10.982Z,17.35
2018-12-20T22:07:40.101Z,16.60
2018-12-20T22:10:09.562Z,13.53
2018-12-20T22:12:38.465Z,15.83
2018-12-20T22:15:07.642Z,14.83
2018-12-20T22:17:36.644Z,16.57
2018-12-20T22:20:06.356Z,14.68
2018-12-20T22:22:35.399Z,15.60
2018-12-20T22:25:04.649Z,14.05
2018-12-20T22:27:33.659Z,14.55
2018-12-20T22:30:02.589Z,12.60
2018-12-20T22:32:31.565Z,14.40
2018-12-20T22:35:00.545Z,13.45
2018-12-20T22:37:29.474Z,12.58
2018-12-20T22:39:58.395Z,13.08
2018-12-20T22:42:27.330Z,11.12
2018-12-20T22:44:56.246Z,13.35
2018-12-20T22:47:25.169Z,13.15
2018-12-20T22:49:54.797Z,13.30
2018-12-20T22:52:23.651Z,11.25
2018-12-20T22:54:52.576Z,13.65
2018-12-20T22:57:21.579Z,14.53
2018-12-20T22:59:50.590Z,13.05
2018-12-20T23:02:19.473Z,14.00
2018-12-20T23:04:48.405Z,12.23
2018-12-20T23:07:18.693Z,12.70
2018-12-20T23:09:47.658Z,12.20
2018-12-20T23:12:18.063Z,13.78
2018-12-20T23:14:47.385Z,13.90
2018-12-20T23:17:16.436Z,14.40
2018-12-20T23:19:45.476Z,13.48
2018-12-20T23:22:14.446Z,14.13
2018-12-20T23:24:43.472Z,13.50
2018-12-20T23:27:12.466Z,13.98
2018-12-20T23:29:41.486Z,12.47
2018-12-20T23:32:15.731Z,13.30
2018-12-20T23:34:44.780Z,11.70
2018-12-20T23:37:13.867Z,13.93
2018-12-20T23:39:43.760Z,12.70
2018-12-20T23:42:12.844Z,13.08
2018-12-20T23:44:41.805Z,12.60
2018-12-20T23:47:10.932Z,14.00
2018-12-20T23:49:40.129Z,14.43
2018-12-20T23:52:09.209Z,13.30
2018-12-20T23:54:38.243Z,12.00
2018-12-20T23:57:07.278Z,13.58
2018-12-20T23:59:36.253Z,11.43
